sensor_id;sensor_type;location;lat;lon;timestamp;P1;durP1;ratioP1;P2;durP2;ratioP2
980;SDS011;479;53.514;9.994;2023-11-22T00:01:10;3.55;;;3.10;;
980;SDS011;479;53.514;9.994;2023-11-22T00:03:37;6.10;;;4.10;;
980;SDS011;479;53.514;9.994;2023-11-22T00:06:06;7.78;;;5.28;;
980;SDS011;479;53.514;9.994;2023-11-22T00:08:33;10.30;;;6.22;;
980;SDS011;479;53.514;9.994;2023-11-22T00:11:00;6.70;;;5.15;;
980;SDS011;479;53.514;9.994;2023-11-22T00:13:30;6.68;;;4.35;;
980;SDS011;479;53.514;9.994;2023-11-22T00:15:58;2.10;;;1.85;;
980;SDS011;479;53.514;9.994;2023-11-22T00:18:25;6.50;;;5.43;;
980;SDS011;479;53.514;9.994;2023-11-22T00:20:52;4.40;;;3.22;;
980;SDS011;479;53.514;9.994;2023-11-22T00:23:21;13.98;;;7.10;;
980;SDS011;479;53.514;9.994;2023-11-22T00:25:52;31.88;;;18.63;;
980;SDS011;479;53.514;9.994;2023-11-22T00:28:19;4.63;;;3.08;;
980;SDS011;479;53.514;9.994;2023-11-22T00:30:46;1.95;;;1.75;;
980;SDS011;479;53.514;9.994;2023-11-22T00:33:15;3.90;;;2.42;;
980;SDS011;479;53.514;9.994;2023-11-22T00:35:43;4.28;;;2.50;;
980;SDS011;479;53.514;9.994;2023-11-22T00:38:10;3.45;;;2.95;;
980;SDS011;479;53.514;9.994;2023-11-22T00:40:39;2.25;;;2.05;;
980;SDS011;479;53.514;9.994;2023-11-22T00:43:06;2.00;;;1.90;;
980;SDS011;479;53.514;9.994;2023-11-22T00:45:34;2.92;;;2.47;;
980;SDS011;479;53.514;9.994;2023-11-22T00:48:01;3.72;;;2.70;;
980;SDS011;479;53.514;9.994;2023-11-22T00:50:28;2.58;;;2.38;;
980;SDS011;479;53.514;9.994;2023-11-22T00:52:55;7.38;;;3.97;;
980;SDS011;479;53.514;9.994;2023-11-22T00:55:22;6.35;;;2.30;;
980;SDS011;479;53.514;9.994;2023-11-22T00:57:50;2.50;;;2.33;;
980;SDS011;479;53.514;9.994;2023-11-22T01:00:17;2.60;;;2.30;;
980;SDS011;479;53.514;9.994;2023-11-22T01:02:44;3.33;;;2.53;;
980;SDS011;479;53.514;9.994;2023-11-22T01:05:11;8.95;;;6.10;;
980;SDS011;479;53.514;9.994;2023-11-22T01:07:38;2.92;;;2.63;;
980;SDS011;479;53.514;9.994;2023-11-22T01:10:05;2.60;;;2.35;;
980;SDS011;479;53.514;9.994;2023-11-22T01:12:33;6.55;;;2.30;;
980;SDS011;479;53.514;9.994;2023-11-22T01:15:01;2.20;;;2.00;;
980;SDS011;479;53.514;9.994;2023-11-22T01:17:28;2.28;;;2.08;;
980;SDS011;479;53.514;9.994;2023-11-22T01:19:56;2.45;;;2.15;;
980;SDS011;479;53.514;9.994;2023-11-22T01:22:23;3.15;;;2.30;;
980;SDS011;479;53.514;9.994;2023-11-22T01:24:51;3.42;;;2.58;;
980;SDS011;479;53.514;9.994;2023-11-22T01:27:18;2.60;;;2.20;;
980;SDS011;479;53.514;9.994;2023-11-22T01:29:45;2.97;;;2.28;;
980;SDS011;479;53.514;9.994;2023-11-22T01:32:13;2.28;;;2.08;;
980;SDS011;479;53.514;9.994;2023-11-22T01:34:42;4.53;;;2.70;;
980;SDS011;479;53.514;9.994;2023-11-22T01:37:09;2.83;;;2.13;;
980;SDS011;479;53.514;9.994;2023-11-22T01:39:38;2.53;;;2.25;;
980;SDS011;479;53.514;9.994;2023-11-22T01:42:06;4.75;;;3.30;;
980;SDS011;479;53.514;9.994;2023-11-22T01:44:33;1.98;;;1.70;;
980;SDS011;479;53.514;9.994;2023-11-22T01:47:00;2.65;;;2.45;;
980;SDS011;479;53.514;9.994;2023-11-22T01:49:29;2.65;;;2.40;;
980;SDS011;479;53.514;9.994;2023-11-22T01:51:56;3.38;;;3.03;;
980;SDS011;479;53.514;9.994;2023-11-22T01:54:23;3.80;;;2.33;;
980;SDS011;479;53.514;9.994;2023-11-22T01:56:51;7.05;;;2.63;;
980;SDS011;479;53.514;9.994;2023-11-22T01:59:18;2.47;;;2.25;;
980;SDS011;479;53.514;9.994;2023-11-22T02:01:45;4.22;;;2.53;;
980;SDS011;479;53.514;9.994;2023-11-22T02:04:12;4.03;;;3.15;;
980;SDS011;479;53.514;9.994;2023-11-22T02:06:40;2.28;;;2.17;;
980;SDS011;479;53.514;9.994;2023-11-22T02:09:07;5.15;;;3.38;;
980;SDS011;479;53.514;9.994;2023-11-22T02:11:39;6.05;;;3.35;;
980;SDS011;479;53.514;9.994;2023-11-22T02:14:07;2.72;;;2.45;;
980;SDS011;479;53.514;9.994;2023-11-22T02:16:34;3.80;;;2.60;;
980;SDS011;479;53.514;9.994;2023-11-22T02:19:01;3.17;;;2.40;;
980;SDS011;479;53.514;9.994;2023-11-22T02:21:30;3.65;;;3.00;;
980;SDS011;479;53.514;9.994;2023-11-22T02:23:58;2.92;;;2.72;;
980;SDS011;479;53.514;9.994;2023-11-22T02:26:25;4.47;;;2.92;;
980;SDS011;479;53.514;9.994;2023-11-22T02:28:52;2.83;;;2.50;;
980;SDS011;479;53.514;9.994;2023-11-22T02:31:19;4.43;;;2.35;;
980;SDS011;479;53.514;9.994;2023-11-22T02:33:46;5.32;;;3.22;;
980;SDS011;479;53.514;9.994;2023-11-22T02:36:13;3.72;;;3.25;;
980;SDS011;479;53.514;9.994;2023-11-22T02:38:40;4.20;;;2.33;;
980;SDS011;479;53.514;9.994;2023-11-22T02:41:10;6.50;;;3.40;;
980;SDS011;479;53.514;9.994;2023-11-22T02:43:38;2.92;;;2.75;;
980;SDS011;479;53.514;9.994;2023-11-22T02:46:06;2.80;;;2.60;;
980;SDS011;479;53.514;9.994;2023-11-22T02:48:34;4.63;;;2.88;;
980;SDS011;479;53.514;9.994;2023-11-22T02:51:02;2.60;;;2.40;;
980;SDS011;479;53.514;9.994;2023-11-22T02:53:31;3.35;;;2.90;;
980;SDS011;479;53.514;9.994;2023-11-22T02:55:59;3.72;;;2.90;;
980;SDS011;479;53.514;9.994;2023-11-22T02:58:28;5.40;;;3.67;;
980;SDS011;479;53.514;9.994;2023-11-22T03:00:56;2.55;;;2.08;;
980;SDS011;479;53.514;9.994;2023-11-22T03:03:23;2.80;;;2.60;;
980;SDS011;479;53.514;9.994;2023-11-22T03:05:50;2.72;;;2.13;;
980;SDS011;479;53.514;9.994;2023-11-22T03:08:17;6.68;;;3.30;;
980;SDS011;479;53.514;9.994;2023-11-22T03:10:44;2.75;;;2.55;;
980;SDS011;479;53.514;9.994;2023-11-22T03:13:11;4.95;;;3.13;;
980;SDS011;479;53.514;9.994;2023-11-22T03:15:40;3.45;;;2.58;;
980;SDS011;479;53.514;9.994;2023-11-22T03:18:07;7.72;;;2.38;;
980;SDS011;479;53.514;9.994;2023-11-22T03:20:34;2.30;;;2.10;;
980;SDS011;479;53.514;9.994;2023-11-22T03:23:02;2.75;;;2.55;;
980;SDS011;479;53.514;9.994;2023-11-22T03:25:29;4.00;;;2.45;;
980;SDS011;479;53.514;9.994;2023-11-22T03:27:56;2.78;;;2.45;;
980;SDS011;479;53.514;9.994;2023-11-22T03:30:23;3.47;;;3.17;;
980;SDS011;479;53.514;9.994;2023-11-22T03:32:51;6.28;;;3.08;;
980;SDS011;479;53.514;9.994;2023-11-22T03:35:19;3.05;;;2.78;;
980;SDS011;479;53.514;9.994;2023-11-22T03:37:46;3.05;;;2.35;;
980;SDS011;479;53.514;9.994;2023-11-22T03:40:13;4.00;;;2.17;;
980;SDS011;479;53.514;9.994;2023-11-22T03:42:40;3.90;;;2.45;;
980;SDS011;479;53.514;9.994;2023-11-22T03:45:08;3.28;;;3.00;;
980;SDS011;479;53.514;9.994;2023-11-22T03:47:37;4.43;;;2.90;;
980;SDS011;479;53.514;9.994;2023-11-22T03:50:06;4.80;;;3.42;;
980;SDS011;479;53.514;9.994;2023-11-22T03:52:35;3.90;;;3.28;;
980;SDS011;479;53.514;9.994;2023-11-22T03:55:02;3.05;;;2.65;;
980;SDS011;479;53.514;9.994;2023-11-22T03:57:30;4.10;;;3.20;;
980;SDS011;479;53.514;9.994;2023-11-22T03:59:57;4.20;;;3.60;;
980;SDS011;479;53.514;9.994;2023-11-22T04:02:24;3.42;;;3.13;;
980;SDS011;479;53.514;9.994;2023-11-22T04:04:52;6.40;;;3.22;;
980;SDS011;479;53.514;9.994;2023-11-22T04:07:21;2.95;;;2.75;;
980;SDS011;479;53.514;9.994;2023-11-22T04:09:48;5.03;;;3.42;;
980;SDS011;479;53.514;9.994;2023-11-22T04:12:15;5.10;;;4.30;;
980;SDS011;479;53.514;9.994;2023-11-22T04:14:42;5.18;;;4.68;;
980;SDS011;479;53.514;9.994;2023-11-22T04:17:09;4.43;;;3.10;;
980;SDS011;479;53.514;9.994;2023-11-22T04:19:37;2.80;;;2.42;;
980;SDS011;479;53.514;9.994;2023-11-22T04:22:03;4.50;;;2.80;;
980;SDS011;479;53.514;9.994;2023-11-22T04:24:32;3.63;;;2.50;;
980;SDS011;479;53.514;9.994;2023-11-22T04:26:58;3.40;;;3.10;;
980;SDS011;479;53.514;9.994;2023-11-22T04:29:27;6.45;;;3.20;;
980;SDS011;479;53.514;9.994;2023-11-22T04:31:53;3.80;;;3.50;;
980;SDS011;479;53.514;9.994;2023-11-22T04:34:20;2.90;;;2.67;;
980;SDS011;479;53.514;9.994;2023-11-22T04:36:47;5.90;;;3.88;;
980;SDS011;479;53.514;9.994;2023-11-22T04:39:13;3.45;;;3.15;;
980;SDS011;479;53.514;9.994;2023-11-22T04:41:42;5.95;;;4.85;;
980;SDS011;479;53.514;9.994;2023-11-22T04:44:08;4.55;;;2.95;;
980;SDS011;479;53.514;9.994;2023-11-22T04:46:35;2.90;;;2.70;;
980;SDS011;479;53.514;9.994;2023-11-22T04:49:02;3.30;;;3.00;;
980;SDS011;479;53.514;9.994;2023-11-22T04:51:29;3.88;;;3.55;;
980;SDS011;479;53.514;9.994;2023-11-22T04:53:57;4.43;;;3.33;;
980;SDS011;479;53.514;9.994;2023-11-22T04:56:25;3.85;;;3.28;;
980;SDS011;479;53.514;9.994;2023-11-22T04:58:53;4.50;;;3.65;;
980;SDS011;479;53.514;9.994;2023-11-22T05:01:20;3.45;;;2.95;;
980;SDS011;479;53.514;9.994;2023-11-22T05:03:47;2.80;;;2.60;;
980;SDS011;479;53.514;9.994;2023-11-22T05:06:14;3.58;;;3.05;;
980;SDS011;479;53.514;9.994;2023-11-22T05:08:41;5.18;;;4.32;;
980;SDS011;479;53.514;9.994;2023-11-22T05:11:08;4.82;;;2.90;;
980;SDS011;479;53.514;9.994;2023-11-22T05:13:35;3.60;;;2.72;;
980;SDS011;479;53.514;9.994;2023-11-22T05:16:04;3.35;;;3.05;;
980;SDS011;479;53.514;9.994;2023-11-22T05:18:31;4.78;;;3.28;;
980;SDS011;479;53.514;9.994;2023-11-22T05:20:58;4.03;;;3.65;;
980;SDS011;479;53.514;9.994;2023-11-22T05:23:24;4.78;;;3.88;;
980;SDS011;479;53.514;9.994;2023-11-22T05:25:51;3.88;;;3.53;;
980;SDS011;479;53.514;9.994;2023-11-22T05:28:18;3.95;;;3.17;;
980;SDS011;479;53.514;9.994;2023-11-22T05:30:45;5.47;;;3.60;;
980;SDS011;479;53.514;9.994;2023-11-22T05:33:13;3.90;;;3.55;;
980;SDS011;479;53.514;9.994;2023-11-22T05:35:40;5.88;;;3.40;;
980;SDS011;479;53.514;9.994;2023-11-22T05:38:07;4.25;;;3.58;;
980;SDS011;479;53.514;9.994;2023-11-22T05:40:35;4.07;;;3.70;;
980;SDS011;479;53.514;9.994;2023-11-22T05:43:02;7.28;;;4.78;;
980;SDS011;479;53.514;9.994;2023-11-22T05:45:28;2.78;;;2.58;;
980;SDS011;479;53.514;9.994;2023-11-22T05:47:55;2.85;;;2.65;;
980;SDS011;479;53.514;9.994;2023-11-22T05:50:24;2.25;;;1.95;;
980;SDS011;479;53.514;9.994;2023-11-22T05:52:50;4.30;;;2.70;;
980;SDS011;479;53.514;9.994;2023-11-22T05:55:18;3.53;;;3.03;;
980;SDS011;479;53.514;9.994;2023-11-22T05:57:44;4.47;;;3.65;;
980;SDS011;479;53.514;9.994;2023-11-22T06:00:12;4.70;;;3.72;;
980;SDS011;479;53.514;9.994;2023-11-22T06:02:40;3.85;;;3.10;;
980;SDS011;479;53.514;9.994;2023-11-22T06:05:08;4.72;;;3.95;;
980;SDS011;479;53.514;9.994;2023-11-22T06:07:36;6.47;;;3.15;;
980;SDS011;479;53.514;9.994;2023-11-22T06:10:04;5.15;;;4.25;;
980;SDS011;479;53.514;9.994;2023-11-22T06:12:31;4.30;;;3.80;;
980;SDS011;479;53.514;9.994;2023-11-22T06:14:58;5.60;;;4.20;;
980;SDS011;479;53.514;9.994;2023-11-22T06:17:25;4.60;;;3.42;;
980;SDS011;479;53.514;9.994;2023-11-22T06:19:52;4.20;;;3.40;;
980;SDS011;479;53.514;9.994;2023-11-22T06:22:18;3.58;;;3.00;;
980;SDS011;479;53.514;9.994;2023-11-22T06:24:47;6.35;;;3.83;;
980;SDS011;479;53.514;9.994;2023-11-22T06:27:14;5.93;;;4.28;;
980;SDS011;479;53.514;9.994;2023-11-22T06:29:41;5.68;;;3.92;;
980;SDS011;479;53.514;9.994;2023-11-22T06:32:09;10.18;;;3.95;;
980;SDS011;479;53.514;9.994;2023-11-22T06:34:36;6.55;;;3.50;;
980;SDS011;479;53.514;9.994;2023-11-22T06:37:03;5.50;;;4.57;;
980;SDS011;479;53.514;9.994;2023-11-22T06:39:33;4.45;;;3.88;;
980;SDS011;479;53.514;9.994;2023-11-22T06:42:01;5.30;;;4.78;;
980;SDS011;479;53.514;9.994;2023-11-22T06:44:28;5.35;;;4.38;;
980;SDS011;479;53.514;9.994;2023-11-22T06:46:55;6.07;;;4.47;;
980;SDS011;479;53.514;9.994;2023-11-22T06:49:22;6.43;;;5.28;;
980;SDS011;479;53.514;9.994;2023-11-22T06:51:49;8.15;;;5.22;;
980;SDS011;479;53.514;9.994;2023-11-22T06:54:18;8.23;;;4.50;;
980;SDS011;479;53.514;9.994;2023-11-22T06:56:45;4.80;;;3.10;;
980;SDS011;479;53.514;9.994;2023-11-22T06:59:14;4.93;;;3.65;;
980;SDS011;479;53.514;9.994;2023-11-22T07:01:40;4.40;;;3.05;;
980;SDS011;479;53.514;9.994;2023-11-22T07:04:07;19.15;;;6.53;;
980;SDS011;479;53.514;9.994;2023-11-22T07:06:34;10.27;;;4.97;;
980;SDS011;479;53.514;9.994;2023-11-22T07:09:02;5.10;;;3.95;;
980;SDS011;479;53.514;9.994;2023-11-22T07:11:30;6.50;;;4.60;;
980;SDS011;479;53.514;9.994;2023-11-22T07:13:57;6.10;;;3.97;;
980;SDS011;479;53.514;9.994;2023-11-22T07:16:25;3.95;;;3.40;;
980;SDS011;479;53.514;9.994;2023-11-22T07:18:52;10.52;;;4.13;;
980;SDS011;479;53.514;9.994;2023-11-22T07:21:19;4.40;;;3.75;;
980;SDS011;479;53.514;9.994;2023-11-22T07:23:46;5.95;;;4.07;;
980;SDS011;479;53.514;9.994;2023-11-22T07:26:13;7.18;;;3.70;;
980;SDS011;479;53.514;9.994;2023-11-22T07:28:43;5.80;;;4.30;;
980;SDS011;479;53.514;9.994;2023-11-22T07:31:11;6.22;;;3.83;;
980;SDS011;479;53.514;9.994;2023-11-22T07:33:40;8.02;;;5.07;;
980;SDS011;479;53.514;9.994;2023-11-22T07:36:08;7.68;;;4.82;;
980;SDS011;479;53.514;9.994;2023-11-22T07:38:35;4.47;;;3.95;;
980;SDS011;479;53.514;9.994;2023-11-22T07:41:02;8.95;;;5.88;;
980;SDS011;479;53.514;9.994;2023-11-22T07:43:29;8.95;;;4.20;;
980;SDS011;479;53.514;9.994;2023-11-22T07:45:56;4.63;;;4.07;;
980;SDS011;479;53.514;9.994;2023-11-22T07:48:25;4.38;;;3.70;;
980;SDS011;479;53.514;9.994;2023-11-22T07:50:53;6.68;;;3.75;;
980;SDS011;479;53.514;9.994;2023-11-22T07:53:21;4.25;;;3.40;;
980;SDS011;479;53.514;9.994;2023-11-22T07:55:49;5.65;;;5.05;;
980;SDS011;479;53.514;9.994;2023-11-22T07:58:17;6.07;;;4.55;;
980;SDS011;479;53.514;9.994;2023-11-22T08:00:45;4.50;;;4.10;;
980;SDS011;479;53.514;9.994;2023-11-22T08:03:12;4.97;;;4.35;;
980;SDS011;479;53.514;9.994;2023-11-22T08:05:40;5.20;;;4.65;;
980;SDS011;479;53.514;9.994;2023-11-22T08:08:14;7.43;;;4.97;;
980;SDS011;479;53.514;9.994;2023-11-22T08:10:41;10.35;;;5.55;;
980;SDS011;479;53.514;9.994;2023-11-22T08:13:09;5.55;;;4.72;;
980;SDS011;479;53.514;9.994;2023-11-22T08:15:35;9.00;;;5.00;;
980;SDS011;479;53.514;9.994;2023-11-22T08:18:03;8.77;;;4.30;;
980;SDS011;479;53.514;9.994;2023-11-22T08:20:32;6.97;;;4.90;;
980;SDS011;479;53.514;9.994;2023-11-22T08:22:59;6.47;;;5.30;;
980;SDS011;479;53.514;9.994;2023-11-22T08:25:27;6.40;;;5.13;;
980;SDS011;479;53.514;9.994;2023-11-22T08:27:54;8.48;;;5.78;;
980;SDS011;479;53.514;9.994;2023-11-22T08:30:21;6.13;;;4.55;;
980;SDS011;479;53.514;9.994;2023-11-22T08:32:48;7.43;;;5.07;;
980;SDS011;479;53.514;9.994;2023-11-22T08:35:19;6.32;;;4.50;;
980;SDS011;479;53.514;9.994;2023-11-22T08:37:47;6.57;;;4.70;;
980;SDS011;479;53.514;9.994;2023-11-22T08:40:15;12.93;;;4.85;;
980;SDS011;479;53.514;9.994;2023-11-22T08:42:46;7.95;;;5.40;;
980;SDS011;479;53.514;9.994;2023-11-22T08:45:14;6.85;;;4.43;;
980;SDS011;479;53.514;9.994;2023-11-22T08:47:41;5.88;;;5.28;;
980;SDS011;479;53.514;9.994;2023-11-22T08:50:08;7.30;;;5.78;;
980;SDS011;479;53.514;9.994;2023-11-22T08:52:37;4.13;;;3.72;;
980;SDS011;479;53.514;9.994;2023-11-22T08:55:05;6.20;;;4.60;;
980;SDS011;479;53.514;9.994;2023-11-22T08:57:34;7.00;;;4.47;;
980;SDS011;479;53.514;9.994;2023-11-22T09:00:03;8.20;;;5.10;;
980;SDS011;479;53.514;9.994;2023-11-22T09:02:34;4.88;;;4.40;;
980;SDS011;479;53.514;9.994;2023-11-22T09:05:02;4.97;;;4.47;;
980;SDS011;479;53.514;9.994;2023-11-22T09:07:31;4.80;;;4.28;;
980;SDS011;479;53.514;9.994;2023-11-22T09:09:59;4.47;;;4.07;;
980;SDS011;479;53.514;9.994;2023-11-22T09:12:26;5.57;;;4.65;;
980;SDS011;479;53.514;9.994;2023-11-22T09:14:53;7.70;;;5.22;;
980;SDS011;479;53.514;9.994;2023-11-22T09:17:21;5.28;;;4.03;;
980;SDS011;479;53.514;9.994;2023-11-22T09:19:48;5.85;;;5.25;;
980;SDS011;479;53.514;9.994;2023-11-22T09:22:15;5.65;;;4.15;;
980;SDS011;479;53.514;9.994;2023-11-22T09:24:43;6.03;;;5.38;;
980;SDS011;479;53.514;9.994;2023-11-22T09:27:11;5.57;;;4.95;;
980;SDS011;479;53.514;9.994;2023-11-22T09:29:41;6.65;;;6.00;;
980;SDS011;479;53.514;9.994;2023-11-22T09:32:08;10.13;;;5.22;;
980;SDS011;479;53.514;9.994;2023-11-22T09:34:37;9.77;;;5.82;;
980;SDS011;479;53.514;9.994;2023-11-22T09:37:04;6.45;;;5.05;;
980;SDS011;479;53.514;9.994;2023-11-22T09:39:30;7.32;;;5.28;;
980;SDS011;479;53.514;9.994;2023-11-22T09:41:57;9.07;;;7.13;;
980;SDS011;479;53.514;9.994;2023-11-22T09:44:24;7.05;;;4.75;;
980;SDS011;479;53.514;9.994;2023-11-22T09:46:51;6.40;;;4.10;;
980;SDS011;479;53.514;9.994;2023-11-22T09:49:22;8.35;;;5.00;;
980;SDS011;479;53.514;9.994;2023-11-22T09:51:54;4.97;;;4.45;;
980;SDS011;479;53.514;9.994;2023-11-22T09:54:22;6.13;;;4.65;;
980;SDS011;479;53.514;9.994;2023-11-22T09:56:56;8.27;;;4.85;;
980;SDS011;479;53.514;9.994;2023-11-22T09:59:26;6.22;;;4.78;;
980;SDS011;479;53.514;9.994;2023-11-22T10:01:55;6.10;;;3.83;;
980;SDS011;479;53.514;9.994;2023-11-22T10:04:24;5.30;;;4.43;;
980;SDS011;479;53.514;9.994;2023-11-22T10:06:56;16.45;;;9.40;;
980;SDS011;479;53.514;9.994;2023-11-22T10:09:25;16.20;;;9.60;;
980;SDS011;479;53.514;9.994;2023-11-22T10:11:57;16.13;;;10.73;;
980;SDS011;479;53.514;9.994;2023-11-22T10:14:24;15.82;;;10.60;;
980;SDS011;479;53.514;9.994;2023-11-22T10:16:58;6.82;;;4.35;;
980;SDS011;479;53.514;9.994;2023-11-22T10:19:26;4.10;;;3.80;;
980;SDS011;479;53.514;9.994;2023-11-22T10:22:04;11.82;;;5.57;;
980;SDS011;479;53.514;9.994;2023-11-22T10:24:33;11.77;;;8.23;;
980;SDS011;479;53.514;9.994;2023-11-22T10:27:00;6.68;;;5.30;;
980;SDS011;479;53.514;9.994;2023-11-22T10:29:27;4.78;;;4.03;;
980;SDS011;479;53.514;9.994;2023-11-22T10:31:55;6.13;;;4.93;;
980;SDS011;479;53.514;9.994;2023-11-22T10:34:23;6.07;;;4.53;;
980;SDS011;479;53.514;9.994;2023-11-22T10:36:50;5.50;;;4.68;;
980;SDS011;479;53.514;9.994;2023-11-22T10:39:22;3.78;;;2.80;;
980;SDS011;479;53.514;9.994;2023-11-22T10:41:51;9.25;;;5.40;;
980;SDS011;479;53.514;9.994;2023-11-22T10:44:19;11.88;;;8.00;;
980;SDS011;479;53.514;9.994;2023-11-22T10:46:47;6.22;;;3.65;;
980;SDS011;479;53.514;9.994;2023-11-22T10:49:17;3.58;;;2.85;;
980;SDS011;479;53.514;9.994;2023-11-22T10:51:47;4.00;;;3.33;;
980;SDS011;479;53.514;9.994;2023-11-22T10:54:18;4.88;;;3.92;;
980;SDS011;479;53.514;9.994;2023-11-22T10:56:49;4.82;;;4.28;;
980;SDS011;479;53.514;9.994;2023-11-22T10:59:22;4.88;;;3.92;;
980;SDS011;479;53.514;9.994;2023-11-22T11:01:53;6.50;;;4.55;;
980;SDS011;479;53.514;9.994;2023-11-22T11:04:27;3.70;;;3.38;;
980;SDS011;479;53.514;9.994;2023-11-22T11:07:00;3.50;;;3.20;;
980;SDS011;479;53.514;9.994;2023-11-22T11:09:29;2.17;;;2.00;;
980;SDS011;479;53.514;9.994;2023-11-22T11:11:59;4.15;;;3.42;;
980;SDS011;479;53.514;9.994;2023-11-22T11:14:27;4.80;;;3.22;;
980;SDS011;479;53.514;9.994;2023-11-22T11:16:55;5.43;;;3.42;;
980;SDS011;479;53.514;9.994;2023-11-22T11:19:23;6.07;;;3.47;;
980;SDS011;479;53.514;9.994;2023-11-22T11:21:50;5.90;;;2.80;;
980;SDS011;479;53.514;9.994;2023-11-22T11:24:18;3.28;;;2.97;;
980;SDS011;479;53.514;9.994;2023-11-22T11:26:47;3.38;;;3.13;;
980;SDS011;479;53.514;9.994;2023-11-22T11:29:30;3.25;;;2.53;;
980;SDS011;479;53.514;9.994;2023-11-22T11:31:58;2.47;;;1.23;;
980;SDS011;479;53.514;9.994;2023-11-22T11:34:25;3.15;;;2.63;;
980;SDS011;479;53.514;9.994;2023-11-22T11:36:52;8.93;;;4.80;;
980;SDS011;479;53.514;9.994;2023-11-22T11:39:24;3.70;;;2.45;;
980;SDS011;479;53.514;9.994;2023-11-22T11:42:07;6.22;;;4.07;;
980;SDS011;479;53.514;9.994;2023-11-22T11:44:36;3.22;;;2.78;;
980;SDS011;479;53.514;9.994;2023-11-22T11:47:13;1.65;;;1.55;;
980;SDS011;479;53.514;9.994;2023-11-22T11:49:40;3.45;;;2.13;;
980;SDS011;479;53.514;9.994;2023-11-22T11:52:07;3.00;;;1.80;;
980;SDS011;479;53.514;9.994;2023-11-22T11:54:34;2.85;;;2.63;;
980;SDS011;479;53.514;9.994;2023-11-22T11:57:02;2.67;;;2.42;;
980;SDS011;479;53.514;9.994;2023-11-22T11:59:29;3.80;;;2.85;;
980;SDS011;479;53.514;9.994;2023-11-22T12:01:59;2.40;;;2.20;;
980;SDS011;479;53.514;9.994;2023-11-22T12:04:26;2.42;;;2.20;;
980;SDS011;479;53.514;9.994;2023-11-22T12:06:53;2.58;;;2.00;;
980;SDS011;479;53.514;9.994;2023-11-22T12:09:23;1.80;;;1.70;;
980;SDS011;479;53.514;9.994;2023-11-22T12:11:54;3.33;;;2.65;;
980;SDS011;479;53.514;9.994;2023-11-22T12:14:21;3.70;;;3.13;;
980;SDS011;479;53.514;9.994;2023-11-22T12:16:50;3.65;;;2.40;;
980;SDS011;479;53.514;9.994;2023-11-22T12:19:24;1.80;;;1.70;;
980;SDS011;479;53.514;9.994;2023-11-22T12:21:52;2.45;;;2.25;;
980;SDS011;479;53.514;9.994;2023-11-22T12:24:19;4.32;;;2.45;;
980;SDS011;479;53.514;9.994;2023-11-22T12:26:47;2.50;;;2.05;;
980;SDS011;479;53.514;9.994;2023-11-22T12:29:15;2.88;;;2.13;;
980;SDS011;479;53.514;9.994;2023-11-22T12:31:44;2.95;;;2.10;;
980;SDS011;479;53.514;9.994;2023-11-22T12:34:12;2.10;;;1.90;;
980;SDS011;479;53.514;9.994;2023-11-22T12:36:42;1.90;;;1.70;;
980;SDS011;479;53.514;9.994;2023-11-22T12:39:10;1.65;;;1.55;;
980;SDS011;479;53.514;9.994;2023-11-22T12:41:42;1.80;;;1.70;;
980;SDS011;479;53.514;9.994;2023-11-22T12:44:14;1.05;;;0.98;;
980;SDS011;479;53.514;9.994;2023-11-22T12:46:44;1.25;;;1.25;;
980;SDS011;479;53.514;9.994;2023-11-22T12:49:17;3.10;;;1.38;;
980;SDS011;479;53.514;9.994;2023-11-22T12:51:47;1.30;;;1.20;;
980;SDS011;479;53.514;9.994;2023-11-22T12:54:14;1.15;;;1.10;;
980;SDS011;479;53.514;9.994;2023-11-22T12:56:41;4.10;;;1.48;;
980;SDS011;479;53.514;9.994;2023-11-22T12:59:08;1.52;;;1.10;;
980;SDS011;479;53.514;9.994;2023-11-22T13:01:37;1.20;;;1.20;;
980;SDS011;479;53.514;9.994;2023-11-22T13:04:05;1.40;;;1.30;;
980;SDS011;479;53.514;9.994;2023-11-22T13:06:32;2.67;;;1.30;;
980;SDS011;479;53.514;9.994;2023-11-22T13:09:00;5.97;;;1.45;;
980;SDS011;479;53.514;9.994;2023-11-22T13:11:28;1.70;;;1.35;;
980;SDS011;479;53.514;9.994;2023-11-22T13:13:55;2.30;;;1.30;;
980;SDS011;479;53.514;9.994;2023-11-22T13:16:22;1.40;;;1.30;;
980;SDS011;479;53.514;9.994;2023-11-22T13:18:49;2.65;;;1.75;;
980;SDS011;479;53.514;9.994;2023-11-22T13:21:15;2.90;;;2.70;;
980;SDS011;479;53.514;9.994;2023-11-22T13:23:42;1.42;;;0.88;;
980;SDS011;479;53.514;9.994;2023-11-22T13:26:10;1.63;;;1.52;;
980;SDS011;479;53.514;9.994;2023-11-22T13:28:39;2.58;;;1.80;;
980;SDS011;479;53.514;9.994;2023-11-22T13:31:07;1.25;;;1.25;;
980;SDS011;479;53.514;9.994;2023-11-22T13:33:35;1.65;;;1.48;;
980;SDS011;479;53.514;9.994;2023-11-22T13:36:03;2.70;;;1.98;;
980;SDS011;479;53.514;9.994;2023-11-22T13:38:33;2.22;;;1.80;;
980;SDS011;479;53.514;9.994;2023-11-22T13:41:00;2.33;;;1.50;;
980;SDS011;479;53.514;9.994;2023-11-22T13:43:28;2.08;;;1.70;;
980;SDS011;479;53.514;9.994;2023-11-22T13:45:56;1.10;;;1.10;;
980;SDS011;479;53.514;9.994;2023-11-22T13:48:23;1.75;;;1.45;;
980;SDS011;479;53.514;9.994;2023-11-22T13:50:50;1.33;;;1.23;;
980;SDS011;479;53.514;9.994;2023-11-22T13:53:17;2.70;;;1.30;;
980;SDS011;479;53.514;9.994;2023-11-22T13:55:47;3.38;;;1.85;;
980;SDS011;479;53.514;9.994;2023-11-22T13:58:15;0.70;;;0.70;;
980;SDS011;479;53.514;9.994;2023-11-22T14:00:44;2.30;;;1.20;;
980;SDS011;479;53.514;9.994;2023-11-22T14:03:17;1.25;;;1.00;;
980;SDS011;479;53.514;9.994;2023-11-22T14:05:44;2.35;;;2.17;;
980;SDS011;479;53.514;9.994;2023-11-22T14:08:11;1.30;;;1.20;;
980;SDS011;479;53.514;9.994;2023-11-22T14:10:38;2.65;;;1.60;;
980;SDS011;479;53.514;9.994;2023-11-22T14:13:05;1.80;;;1.70;;
980;SDS011;479;53.514;9.994;2023-11-22T14:15:33;1.10;;;1.10;;
980;SDS011;479;53.514;9.994;2023-11-22T14:18:02;3.00;;;1.58;;
980;SDS011;479;53.514;9.994;2023-11-22T14:20:30;0.90;;;0.90;;
980;SDS011;479;53.514;9.994;2023-11-22T14:22:59;1.48;;;1.38;;
980;SDS011;479;53.514;9.994;2023-11-22T14:25:26;2.50;;;1.80;;
980;SDS011;479;53.514;9.994;2023-11-22T14:27:54;1.30;;;1.02;;
980;SDS011;479;53.514;9.994;2023-11-22T14:30:22;1.73;;;1.63;;
980;SDS011;479;53.514;9.994;2023-11-22T14:32:52;0.90;;;0.90;;
980;SDS011;479;53.514;9.994;2023-11-22T14:35:20;2.75;;;1.63;;
980;SDS011;479;53.514;9.994;2023-11-22T14:37:49;1.50;;;1.40;;
980;SDS011;479;53.514;9.994;2023-11-22T14:40:18;1.52;;;1.42;;
980;SDS011;479;53.514;9.994;2023-11-22T14:42:46;1.88;;;1.45;;
980;SDS011;479;53.514;9.994;2023-11-22T14:45:12;3.00;;;1.50;;
980;SDS011;479;53.514;9.994;2023-11-22T14:47:40;1.88;;;1.33;;
980;SDS011;479;53.514;9.994;2023-11-22T14:50:10;3.92;;;1.33;;
980;SDS011;479;53.514;9.994;2023-11-22T14:52:42;1.83;;;1.60;;
980;SDS011;479;53.514;9.994;2023-11-22T14:55:09;2.15;;;1.98;;
980;SDS011;479;53.514;9.994;2023-11-22T14:57:37;1.90;;;1.80;;
980;SDS011;479;53.514;9.994;2023-11-22T15:00:05;2.53;;;2.33;;
980;SDS011;479;53.514;9.994;2023-11-22T15:02:35;1.35;;;1.30;;
980;SDS011;479;53.514;9.994;2023-11-22T15:05:02;2.00;;;1.48;;
980;SDS011;479;53.514;9.994;2023-11-22T15:07:30;1.38;;;0.95;;
980;SDS011;479;53.514;9.994;2023-11-22T15:09:58;2.03;;;1.85;;
980;SDS011;479;53.514;9.994;2023-11-22T15:12:25;3.15;;;1.75;;
980;SDS011;479;53.514;9.994;2023-11-22T15:14:55;1.70;;;1.40;;
980;SDS011;479;53.514;9.994;2023-11-22T15:17:22;2.55;;;1.60;;
980;SDS011;479;53.514;9.994;2023-11-22T15:19:49;1.70;;;1.60;;
980;SDS011;479;53.514;9.994;2023-11-22T15:22:16;1.58;;;1.48;;
980;SDS011;479;53.514;9.994;2023-11-22T15:24:43;2.20;;;2.00;;
980;SDS011;479;53.514;9.994;2023-11-22T15:27:11;2.63;;;2.22;;
980;SDS011;479;53.514;9.994;2023-11-22T15:29:38;2.58;;;2.38;;
980;SDS011;479;53.514;9.994;2023-11-22T15:32:05;1.60;;;1.30;;
980;SDS011;479;53.514;9.994;2023-11-22T15:34:32;6.22;;;2.00;;
980;SDS011;479;53.514;9.994;2023-11-22T15:37:04;2.35;;;2.10;;
980;SDS011;479;53.514;9.994;2023-11-22T15:39:31;1.55;;;1.45;;
980;SDS011;479;53.514;9.994;2023-11-22T15:41:59;2.45;;;2.25;;
980;SDS011;479;53.514;9.994;2023-11-22T15:44:27;2.63;;;2.42;;
980;SDS011;479;53.514;9.994;2023-11-22T15:46:54;2.10;;;1.55;;
980;SDS011;479;53.514;9.994;2023-11-22T15:49:21;2.72;;;1.85;;